Time;durP1;ratioP1;P1;durP2;ratioP2;P2;SDS_P1;SDS_P2;PMS_P1;PMS_P2;Temp;Humidity;BMP_temperature;BMP_pressure;BME280_temperature;BME280_humidity;BME280_pressure;Samples;Min_cycle;Max_cycle;Signal;HPM_P1;HPM_P2
2022/08/21 00:01:16;;;;;;;9.55;5.53;;;;;;;;;;6191215;23;20021;-86
2022/08/21 00:03:42;;;;;;;14.73;5.78;;;;;;;;;;6220258;23;20024;-86
2022/08/21 00:06:08;;;;;;;12.40;6.13;;;;;;;;;;6164492;23;20023;-84
2022/08/21 00:08:35;;;;;;;11.50;6.43;;;;;;;;;;6215577;23;20465;-83
2022/08/21 00:11:13;;;;;;;14.27;6.60;;;;;;;;;;6211734;23;20020;-83
2022/08/21 00:13:47;;;;;;;16.55;7.15;;;;;;;;;;6189747;23;20068;-89
2022/08/21 00:16:13;;;;;;;14.65;6.18;;;;;;;;;;6222723;23;20024;-89
2022/08/21 00:18:42;;;;;;;11.45;6.10;;;;;;;;;;6224551;22;20043;-90
2022/08/21 00:21:33;;;;;;;13.02;6.55;;;;;;;;;;6196851;23;20024;-90
2022/08/21 00:24:01;;;;;;;13.73;7.50;;;;;;;;;;6249751;23;20315;-91
2022/08/21 00:26:30;;;;;;;17.95;7.97;;;;;;;;;;6246120;23;20020;-90
2022/08/21 00:28:57;;;;;;;7.97;6.32;;;;;;;;;;6198629;23;20078;-89
2022/08/21 00:31:23;;;;;;;14.98;6.65;;;;;;;;;;6222258;23;20027;-91
2022/08/21 00:33:51;;;;;;;14.48;6.80;;;;;;;;;;6224211;23;20012;-86
2022/08/21 00:36:18;;;;;;;13.38;6.78;;;;;;;;;;6247042;23;20042;-89
2022/08/21 00:38:44;;;;;;;11.93;6.55;;;;;;;;;;6221923;23;20027;-85
2022/08/21 00:41:22;;;;;;;14.13;6.25;;;;;;;;;;6246072;23;20027;-87
2022/08/21 00:49:20;;;;;;;13.23;7.18;;;;;;;;;;6251882;22;20103;-91
2022/08/21 00:51:51;;;;;;;11.40;6.57;;;;;;;;;;6200070;23;20024;-90
2022/08/21 00:54:22;;;;;;;13.23;7.88;;;;;;;;;;6255455;23;20736;-87
2022/08/21 00:56:51;;;;;;;11.80;6.72;;;;;;;;;;6229000;23;20039;-87
2022/08/21 01:02:40;;;;;;;13.90;8.50;;;;;;;;;;6221154;23;20076;-92
2022/08/21 01:05:18;;;;;;;15.23;9.57;;;;;;;;;;6220156;23;20038;-91
2022/08/21 01:07:44;;;;;;;15.50;10.23;;;;;;;;;;6196915;23;20027;-87
2022/08/21 01:10:24;;;;;;;16.60;11.43;;;;;;;;;;6219603;23;20025;-91
2022/08/21 01:12:51;;;;;;;16.55;10.13;;;;;;;;;;6221554;23;20035;-84
2022/08/21 01:15:19;;;;;;;15.98;9.95;;;;;;;;;;6229614;23;20020;-87
2022/08/21 01:18:05;;;;;;;23.38;10.52;;;;;;;;;;6210843;23;20112;-92
2022/08/21 01:23:48;;;;;;;18.88;9.75;;;;;;;;;;6225638;23;20021;-92
2022/08/21 01:26:47;;;;;;;15.88;9.25;;;16.00;99.90;;;;;;6222878;23;20024;-92
2022/08/21 01:29:32;;;;;;;14.38;8.52;;;;;;;;;;6172394;23;20039;-92
2022/08/21 01:32:00;;;;;;;15.43;8.75;;;;;;;;;;6225634;23;20031;-86
2022/08/21 01:34:26;;;;;;;14.23;8.15;;;;;;;;;;6251217;23;20146;-91
2022/08/21 01:36:52;;;;;;;13.88;7.82;;;;;;;;;;6199970;23;20105;-90
2022/08/21 01:39:19;;;;;;;15.18;8.88;;;;;;;;;;6252782;23;20425;-92
2022/08/21 01:41:45;;;;;;;14.73;7.75;;;;;;;;;;6225448;23;20106;-92
2022/08/21 01:44:11;;;;;;;13.15;8.55;;;;;;;;;;6225005;23;20027;-91
2022/08/21 01:46:37;;;;;;;17.80;8.65;;;;;;;;;;6226267;23;20020;-90
2022/08/21 01:49:04;;;;;;;14.23;8.27;;;;;;;;;;6222678;23;20031;-90
2022/08/21 01:51:42;;;;;;;12.32;7.55;;;;;;;;;;6248941;23;20028;-89
2022/08/21 01:54:11;;;;;;;13.02;7.07;;;;;;;;;;6227964;23;20082;-90
2022/08/21 01:56:59;;;;;;;11.98;7.10;;;;;;;;;;6197525;23;20040;-90
2022/08/21 01:59:44;;;;;;;14.73;6.85;;;;;;;;;;6223236;23;20075;-89
2022/08/21 02:02:32;;;;;;;13.23;6.72;;;;;;;;;;6222886;23;20016;-91
2022/08/21 02:08:23;;;;;;;10.90;6.70;;;;;;;;;;6265566;23;20079;-87
2022/08/21 02:10:50;;;;;;;16.92;6.57;;;;;;;;;;6261855;23;20098;-88
2022/08/21 02:13:28;;;;;;;10.80;5.63;;;;;;;;;;6266319;23;20258;-89
2022/08/21 02:15:54;;;;;;;9.32;6.07;;;;;;;;;;6265381;23;20027;-88
2022/08/21 02:18:20;;;;;;;10.95;5.35;;;;;;;;;;6239329;23;20043;-87
2022/08/21 02:20:48;;;;;;;15.80;5.60;;;;;;;;;;6204257;23;20035;-90
2022/08/21 02:23:29;;;;;;;10.43;5.82;;;;;;;;;;6227679;23;20016;-92
2022/08/21 02:28:49;;;;;;;10.73;5.05;;;;;;;;;;6251543;23;20024;-87
2022/08/21 02:31:40;;;;;;;14.32;6.40;;;15.00;99.90;;;;;;6193541;23;20024;-84
2022/08/21 02:34:06;;;;;;;12.20;6.20;;;;;;;;;;6250908;22;20050;-90
2022/08/21 02:36:33;;;;;;;10.82;6.10;;;;;;;;;;6197114;23;20020;-92
2022/08/21 02:42:21;;;;;;;9.95;5.70;;;;;;;;;;6222677;23;20020;-91
2022/08/21 02:45:06;;;;;;;16.33;6.22;;;;;;;;;;6221462;23;20016;-92
2022/08/21 02:50:56;;;;;;;10.02;5.57;;;;;;;;;;6196141;23;20021;-93
2022/08/21 02:59:49;;;;;;;12.20;6.38;;;;;;;;;;6222461;23;20031;-93
2022/08/21 03:02:15;;;;;;;13.20;6.05;;;;;;;;;;6221585;23;20024;-90
2022/08/21 03:04:41;;;;;;;12.52;6.47;;;;;;;;;;6222143;23;20070;-91
2022/08/21 03:13:52;;;;;;;17.05;7.40;;;;;;;;;;6221201;23;20149;-92
2022/08/21 03:16:22;;;;;;;11.60;6.13;;;;;;;;;;6221972;23;20054;-90
2022/08/21 03:25:08;;;;;;;22.27;6.97;;;;;;;;;;6248918;23;20115;-89
2022/08/21 03:30:59;;;;;;;22.42;6.80;;;;;;;;;;6246213;23;20111;-87
2022/08/21 03:33:25;;;;;;;10.38;6.07;;;;;;;;;;6245900;23;20022;-87
2022/08/21 03:35:55;;;;;;;16.42;6.88;;;;;;;;;;6215144;23;20078;-85
2022/08/21 03:38:21;;;;;;;19.17;6.50;;;;;;;;;;6244464;23;20016;-83
2022/08/21 03:43:23;;;;;;;16.55;6.65;;;;;;;;;;6249196;22;20028;-82
2022/08/21 03:46:11;;;;;;;20.33;7.13;;;;;;;;;;6225926;23;20033;-86
2022/08/21 03:48:44;;;;;;;15.00;7.13;;;;;;;;;;6221383;23;20027;-89
2022/08/21 03:54:20;;;;;;;21.60;7.07;;;;;;;;;;6246670;22;20127;-84
2022/08/21 03:59:51;;;;;;;18.55;8.45;;;;;;;;;;6221717;23;20023;-85
2022/08/21 04:02:21;;;;;;;17.15;7.63;;;;;;;;;;6193446;23;20024;-88
2022/08/21 04:04:47;;;;;;;14.43;7.57;;;;;;;;;;6222470;23;20079;-89
2022/08/21 04:07:13;;;;;;;14.75;7.45;;;;;;;;;;6192058;23;20571;-87
2022/08/21 04:09:39;;;;;;;19.02;8.02;;;;;;;;;;6219365;23;20020;-89
2022/08/21 04:12:21;;;;;;;15.02;8.10;;;;;;;;;;6216119;23;20349;-90
2022/08/21 04:14:47;;;;;;;13.75;8.10;;;;;;;;;;6194536;23;20434;-91
2022/08/21 04:17:13;;;;;;;16.60;7.55;;;;;;;;;;6216932;23;20021;-92
2022/08/21 04:19:41;;;;;;;12.15;6.65;;;;;;;;;;6169504;23;20020;-90
2022/08/21 04:31:04;;;;;;;16.92;6.97;;;;;;;;;;6269040;22;20012;-90
2022/08/21 04:33:30;;;;;;;14.48;7.82;;;;;;;;;;6240493;22;20020;-90
2022/08/21 04:43:25;;;;;;;12.88;7.05;;;;;;;;;;6257960;23;20265;-88
2022/08/21 04:45:52;;;;;;;17.77;7.10;;;;;;;;;;6253467;23;20453;-88
2022/08/21 04:48:20;;;;;;;14.68;7.55;;;;;;;;;;6252807;23;20038;-91
2022/08/21 04:51:05;;;;;;;12.55;7.78;;;;;;;;;;6257152;23;20020;-91
2022/08/21 04:53:56;;;;;;;13.80;7.43;;;;;;;;;;6233660;23;20032;-87
2022/08/21 04:56:43;;;;;;;13.50;7.35;;;;;;;;;;6254756;23;20096;-90
2022/08/21 04:59:37;;;;;;;11.07;7.30;;;;;;;;;;6228839;23;20052;-91
2022/08/21 05:05:28;;;;;;;15.38;7.00;;;;;;;;;;6256399;22;20154;-91
2022/08/21 05:11:26;;;;;;;18.67;7.80;;;;;;;;;;6189435;23;20117;-91
2022/08/21 05:17:23;;;;;;;16.50;7.70;;;;;;;;;;6266585;23;20594;-89
2022/08/21 05:19:49;;;;;;;16.80;8.10;;;;;;;;;;6233930;23;20035;-92
2022/08/21 05:22:22;;;;;;;17.33;8.40;;;;;;;;;;6227432;23;20095;-92
2022/08/21 05:24:57;;;;;;;14.80;8.25;;;;;;;;;;6228274;23;20028;-91
2022/08/21 05:27:23;;;;;;;13.52;8.55;;;;;;;;;;6202370;23;20075;-92
2022/08/21 05:29:49;;;;;;;17.40;8.25;;;;;;;;;;6227333;23;20028;-91
2022/08/21 05:32:15;;;;;;;12.55;7.93;;;;;;;;;;6223936;23;20087;-90
2022/08/21 05:34:41;;;;;;;18.00;9.13;;;;;;;;;;6252076;23;20027;-86
2022/08/21 05:37:08;;;;;;;38.95;9.43;;;;;;;;;;6251285;23;20016;-85
2022/08/21 05:39:34;;;;;;;16.98;8.07;;;;;;;;;;6251163;23;20047;-90
2022/08/21 05:42:00;;;;;;;14.27;7.63;;;;;;;;;;6252264;23;20085;-89
2022/08/21 05:44:26;;;;;;;16.50;7.22;;;;;;;;;;6224258;23;20465;-89
2022/08/21 05:46:52;;;;;;;15.77;6.90;;;;;;;;;;6252335;23;20102;-89
2022/08/21 05:49:27;;;;;;;14.90;6.28;;;;;;;;;;6250306;23;20031;-90
2022/08/21 05:51:53;;;;;;;10.05;6.07;;;;;;;;;;6252784;23;20059;-87
2022/08/21 05:54:19;;;;;;;10.35;6.25;;;;;;;;;;6250609;23;20073;-92
2022/08/21 05:56:46;;;;;;;11.90;6.03;;;;;;;;;;6253773;23;20016;-92
2022/08/21 05:59:12;;;;;;;13.82;5.45;;;;;;;;;;6253129;23;20318;-86
2022/08/21 06:01:40;;;;;;;13.68;6.00;;;;;;;;;;6225315;23;20023;-91
2022/08/21 06:04:07;;;;;;;15.35;6.03;;;;;;;;;;6253688;23;20012;-92
2022/08/21 06:06:33;;;;;;;12.15;5.93;;;;;;;;;;6225014;23;20012;-89
2022/08/21 06:08:59;;;;;;;16.23;7.28;;;;;;;;;;6251216;23;20028;-89
2022/08/21 06:11:28;;;;;;;19.80;6.97;;;;;;;;;;6249075;23;20096;-89
2022/08/21 06:13:54;;;;;;;10.30;6.07;;;;;;;;;;6250617;23;20019;-89
2022/08/21 06:16:21;;;;;;;15.68;6.45;;;;;;;;;;6249430;23;20020;-89
2022/08/21 06:18:47;;;;;;;13.73;6.95;;;;;;;;;;6224357;23;20031;-89
2022/08/21 06:21:13;;;;;;;14.50;6.95;;;;;;;;;;6223978;23;20098;-89
2022/08/21 06:23:40;;;;;;;17.52;7.60;;;;;;;;;;6226542;23;20012;-88
2022/08/21 06:26:06;;;;;;;12.45;5.95;;;;;;;;;;6225006;23;20020;-89
2022/08/21 06:28:33;;;;;;;22.92;7.82;;;;;;;;;;6250649;23;20460;-88
2022/08/21 06:31:00;;;;;;;17.05;7.63;;;;;;;;;;6252621;23;20024;-90
2022/08/21 06:33:26;;;;;;;15.00;6.75;;;;;;;;;;6251751;23;20020;-91
2022/08/21 06:35:52;;;;;;;12.07;6.38;;;;;;;;;;6252053;23;20618;-90
2022/08/21 06:38:19;;;;;;;14.00;6.68;;;;;;;;;;6226790;23;20012;-91
2022/08/21 06:40:48;;;;;;;16.23;7.15;;;;;;;;;;6254289;23;20048;-91
2022/08/21 06:43:16;;;;;;;19.48;7.43;;;;;;;;;;6250911;23;20042;-88
2022/08/21 06:45:42;;;;;;;17.00;7.57;;;;;;;;;;6249730;23;20020;-89
2022/08/21 06:48:08;;;;;;;18.27;7.60;;;;;;;;;;6225020;23;20038;-90
2022/08/21 06:50:41;;;;;;;16.15;7.45;;;;;;;;;;6223200;23;20115;-89
2022/08/21 06:53:09;;;;;;;18.58;6.45;;;;;;;;;;6227381;23;20058;-89
2022/08/21 06:55:36;;;;;;;17.05;6.95;;;;;;;;;;6250444;23;20098;-88
2022/08/21 06:58:02;;;;;;;17.70;6.30;;;;;;;;;;6198538;23;20357;-89
2022/08/21 07:00:41;;;;;;;18.25;7.30;;;;;;;;;;6199759;23;20016;-90
2022/08/21 07:03:13;;;;;;;17.80;6.45;;;;;;;;;;6229006;23;20024;-91
2022/08/21 07:05:40;;;;;;;15.05;6.00;;;;;;;;;;6201479;23;20038;-88
2022/08/21 07:08:06;;;;;;;13.77;6.45;;;;;;;;;;6252631;23;20012;-93
2022/08/21 07:10:39;;;;;;;20.53;7.33;;;;;;;;;;6225589;23;20391;-90
2022/08/21 07:13:06;;;;;;;18.30;5.57;;;;;;;;;;6251522;23;20016;-85
2022/08/21 07:15:32;;;;;;;14.57;6.18;;;;;;;;;;6254346;23;20016;-91
2022/08/21 07:17:59;;;;;;;16.23;5.32;;;;;;;;;;6225230;23;20020;-90
2022/08/21 07:20:26;;;;;;;16.92;6.30;;;;;;;;;;6252567;23;20064;-90
2022/08/21 07:22:52;;;;;;;11.85;5.65;;;;;;;;;;6222463;23;20138;-93
2022/08/21 07:25:19;;;;;;;15.52;5.85;;;;;;;;;;6252453;23;20440;-90
2022/08/21 07:27:45;;;;;;;12.75;6.13;;;;;;;;;;6250949;23;20072;-93
2022/08/21 07:30:11;;;;;;;15.15;5.85;;;;;;;;;;6255610;23;20035;-92
2022/08/21 07:32:37;;;;;;;14.50;5.13;;;;;;;;;;6253353;23;20016;-90
2022/08/21 07:35:07;;;;;;;14.55;5.18;;;;;;;;;;6227179;23;20076;-84
2022/08/21 07:37:33;;;;;;;12.77;5.07;;;;;;;;;;6258106;23;20060;-87
2022/08/21 07:39:59;;;;;;;15.43;4.80;;;;;;;;;;6183026;23;20020;-90
2022/08/21 07:42:25;;;;;;;10.02;3.90;;;;;;;;;;6235048;23;20016;-82
2022/08/21 07:44:51;;;;;;;12.07;3.80;;;;;;;;;;6209488;23;20077;-91
2022/08/21 07:47:18;;;;;;;14.80;4.38;;;;;;;;;;6256356;23;20031;-91
2022/08/21 07:49:45;;;;;;;9.98;2.88;;;;;;;;;;6251982;23;20024;-90
2022/08/21 07:52:20;;;;;;;20.65;3.65;;;;;;;;;;6254528;23;20024;-92
2022/08/21 07:54:47;;;;;;;10.40;2.90;;;;;;;;;;6251742;23;20048;-92
2022/08/21 07:57:13;;;;;;;7.22;2.40;;;;;;;;;;6224716;23;20426;-93
2022/08/21 07:59:51;;;;;;;12.48;3.00;;;;;;;;;;6251808;23;20480;-92
2022/08/21 08:02:49;;;;;;;8.00;2.83;;;;;;;;;;6204431;23;20171;-91
2022/08/21 08:05:15;;;;;;;11.95;2.53;;;;;;;;;;6227436;23;20033;-92
2022/08/21 08:08:09;;;;;;;12.20;2.72;;;;;;;;;;6254998;23;20012;-90
2022/08/21 08:10:44;;;;;;;9.38;2.83;;;;;;;;;;6257509;23;20023;-93
2022/08/21 08:13:12;;;;;;;8.90;2.95;;;;;;;;;;6229420;23;20055;-90
2022/08/21 08:15:38;;;;;;;10.27;2.70;;;;;;;;;;6230898;23;20471;-91
2022/08/21 08:18:04;;;;;;;11.43;2.85;;;;;;;;;;6227547;23;20048;-91
2022/08/21 08:20:43;;;;;;;12.55;3.13;;;;;;;;;;6255494;23;20095;-94
2022/08/21 08:23:14;;;;;;;6.45;2.20;;;;;;;;;;6227950;23;20043;-89
2022/08/21 08:25:43;;;;;;;9.20;2.60;;;;;;;;;;6228718;23;20084;-93
2022/08/21 08:28:24;;;;;;;11.45;3.70;;;;;;;;;;6228096;23;20437;-93
2022/08/21 08:33:20;;;;;;;6.53;2.00;;;;;;;;;;6223137;23;20040;-88
2022/08/21 08:35:55;;;;;;;6.63;2.30;;;;;;;;;;6221993;23;20017;-91
2022/08/21 08:38:28;;;;;;;11.23;1.90;;;;;;;;;;6216497;23;20032;-94
2022/08/21 08:41:27;;;;;;;5.63;1.70;;;;;;;;;;6199576;23;20024;-91
2022/08/21 08:44:02;;;;;;;9.25;2.42;;;;;;;;;;6109729;23;20294;-91
2022/08/21 08:46:32;;;;;;;7.97;2.55;;;;;;;;;;6104697;23;20018;-90
2022/08/21 08:49:10;;;;;;;9.55;2.45;;;;;;;;;;6130550;23;20037;-92
2022/08/21 08:52:13;;;;;;;7.68;2.22;;;;;;;;;;6130972;23;20030;-90
2022/08/21 08:54:49;;;;;;;12.73;3.05;;;;;;;;;;6079539;23;20097;-89
2022/08/21 08:57:24;;;;;;;7.82;1.80;;;;;;;;;;6084042;23;20050;-89
2022/08/21 08:59:58;;;;;;;7.20;3.10;;;;;;;;;;6084438;23;20042;-93
2022/08/21 09:02:42;;;;;;;7.90;2.15;;;;;;;;;;6132040;23;20032;-90
2022/08/21 09:05:10;;;;;;;12.88;2.47;;;;;;;;;;6209008;22;20043;-83
2022/08/21 09:07:51;;;;;;;11.35;2.53;;;;;;;;;;6204948;23;20017;-91
2022/08/21 09:10:20;;;;;;;15.07;2.97;;;;;;;;;;6201144;23;20319;-88
2022/08/21 09:16:09;;;;;;;6.85;2.35;;;;;;;;;;6224878;23;20052;-95
2022/08/21 09:18:55;;;;;;;9.35;2.50;;;;;;;;;;6173140;23;20013;-94
2022/08/21 09:21:46;;;;;;;15.70;3.05;;;;;;;;;;6221575;23;20020;-92
2022/08/21 09:24:40;;;;;;;9.48;2.47;;;21.80;99.90;;;;;;6223919;23;20831;-94
2022/08/21 09:27:06;;;;;;;8.38;2.40;;;;;;;;;;6194691;23;20035;-92
2022/08/21 09:29:34;;;;;;;12.07;2.83;;;;;;;;;;6196847;23;20032;-92
2022/08/21 09:32:00;;;;;;;8.73;2.10;;;;;;;;;;6194879;23;20023;-85
2022/08/21 09:34:32;;;;;;;14.25;3.10;;;;;;;;;;6170589;23;20056;-93
2022/08/21 09:37:11;;;;;;;9.85;2.28;;;;;;;;;;6194746;23;20017;-93
2022/08/21 09:39:59;;;;;;;10.75;2.55;;;;;;;;;;6172707;23;20016;-93
2022/08/21 09:42:46;;;;;;;11.80;3.28;;;;;;;;;;6172202;23;20024;-93
2022/08/21 10:05:24;;;;;;;11.95;3.10;;;;;;;;;;6256421;23;20074;-95
2022/08/21 10:08:17;;;;;;;15.93;3.15;;;;;;;;;;6205586;23;20020;-93
2022/08/21 10:10:43;;;;;;;15.80;2.88;;;;;;;;;;6204142;23;20023;-94
2022/08/21 10:13:15;;;;;;;17.50;3.20;;;;;;;;;;6232068;23;20040;-89
2022/08/21 10:16:12;;;;;;;13.77;3.33;;;;;;;;;;6201193;23;20123;-93
2022/08/21 10:18:39;;;;;;;12.10;2.72;;;;;;;;;;6227967;23;20020;-90
2022/08/21 10:21:32;;;;;;;12.88;2.90;;;;;;;;;;6202213;23;20024;-92
2022/08/21 10:24:18;;;;;;;18.73;2.53;;;;;;;;;;6226607;23;20391;-92
2022/08/21 10:27:03;;;;;;;14.90;2.72;;;;;;;;;;6203986;23;20030;-93
2022/08/21 10:29:50;;;;;;;14.13;2.70;;;;;;;;;;6227531;23;20074;-92
2022/08/21 10:32:39;;;;;;;12.52;3.10;;;;;;;;;;6205893;23;20027;-87
2022/08/21 10:35:33;;;;;;;;;;;;;;;;;;;;;
2022/08/21 10:38:19;;;;;;;15.95;2.80;;;;;;;;;;6256267;23;20020;-94
2022/08/21 10:41:04;;;;;;;12.07;2.60;;;;;;;;;;6254611;23;20020;-92
2022/08/21 10:43:39;;;;;;;11.77;2.40;;;;;;;;;;6229036;23;20020;-92
2022/08/21 10:46:24;;;;;;;9.32;2.72;;;;;;;;;;6256873;23;20020;-92
2022/08/21 11:08:11;;;;;;;9.00;2.08;;;;;;;;;;6256035;23;20024;-92
2022/08/21 11:11:15;;;;;;;8.80;2.10;;;;;;;;;;6232791;23;20035;-87
2022/08/21 11:13:42;;;;;;;8.23;2.25;;;;;;;;;;6227723;23;20024;-90
2022/08/21 11:16:28;;;;;;;9.45;2.33;;;;;;;;;;6229763;23;20020;-91
2022/08/21 11:19:16;;;;;;;12.77;3.00;;;;;;;;;;6253634;23;20019;-92
2022/08/21 11:22:16;;;;;;;8.68;2.35;;;25.00;99.90;;;;;;6225946;23;20025;-91
2022/08/21 11:24:44;;;;;;;11.75;2.95;;;;;;;;;;6225131;23;20016;-92
2022/08/21 11:27:29;;;;;;;10.52;2.88;;;;;;;;;;6225528;23;20104;-91
2022/08/21 11:30:18;;;;;;;9.05;2.10;;;;;;;;;;6225521;23;20090;-92
2022/08/21 11:36:24;;;;;;;8.10;2.30;;;;;;;;;;6251236;23;20126;-93
2022/08/21 11:38:58;;;;;;;9.43;2.70;;;;;;;;;;6250149;23;20095;-90
2022/08/21 11:41:24;;;;;;;;;;;;;;;;;;6253270;23;20016;-89
2022/08/21 11:43:58;;;;;;;9.50;2.70;;;;;;;;;;6199807;23;19919;-90
2022/08/21 11:46:28;;;;;;;8.77;2.78;;;;;;;;;;6250979;23;20471;-93
2022/08/21 11:51:33;;;;;;;10.77;2.67;;;;;;;;;;6220336;23;20025;-87
2022/08/21 11:54:06;;;;;;;5.85;2.30;;;;;;;;;;6193267;23;20116;-92
2022/08/21 11:56:46;;;;;;;10.07;2.45;;;;;;;;;;6195303;23;20036;-93
2022/08/21 11:59:22;;;;;;;7.60;2.33;;;;;;;;;;6223378;23;20016;-92
2022/08/21 12:01:50;;;;;;;5.68;1.70;;;;;;;;;;6196563;23;20187;-91
2022/08/21 12:04:21;;;;;;;8.32;2.83;;;;;;;;;;6227013;23;20024;-92
2022/08/21 12:06:49;;;;;;;12.73;2.55;;;;;;;;;;6222659;23;20346;-90
2022/08/21 12:09:24;;;;;;;12.23;2.60;;;;;;;;;;6199858;23;20069;-93
2022/08/21 12:12:08;;;;;;;7.88;2.40;;;;;;;;;;6226017;23;20024;-92
2022/08/21 12:14:42;;;;;;;9.55;2.10;;;;;;;;;;6221768;23;20024;-90
2022/08/21 12:17:08;;;;;;;10.15;2.75;;;;;;;;;;6216020;23;20021;-86
2022/08/21 12:19:35;;;;;;;8.13;2.60;;;;;;;;;;6190306;23;20024;-85
2022/08/21 12:22:04;;;;;;;11.65;3.20;;;;;;;;;;6215673;23;20158;-89
2022/08/21 12:24:45;;;;;;;11.60;2.50;;;;;;;;;;6165220;23;20012;-88
2022/08/21 12:27:19;;;;;;;8.35;2.03;;;;;;;;;;6215980;23;20031;-90
2022/08/21 12:29:47;;;;;;;8.02;2.67;;;;;;;;;;6216830;23;20112;-87
2022/08/21 12:32:35;;;;;;;12.82;2.88;;;;;;;;;;6194683;23;20464;-91
2022/08/21 12:35:06;;;;;;;9.93;2.05;;;;;;;;;;6216412;23;20027;-85
2022/08/21 12:37:50;;;;;;;6.68;2.28;;;;;;;;;;6191018;23;20023;-87
2022/08/21 12:40:31;;;;;;;5.65;1.90;;;;;;;;;;6215907;23;20051;-88
2022/08/21 12:42:59;;;;;;;6.53;1.98;;;;;;;;;;6218673;23;20028;-86
2022/08/21 12:45:33;;;;;;;6.32;1.58;;;;;;;;;;6217997;23;20349;-92
2022/08/21 12:48:02;;;;;;;5.00;1.60;;;;;;;;;;6218093;23;20071;-90
2022/08/21 12:50:41;;;;;;;5.78;1.63;;;;;;;;;;6191454;23;20021;-91
2022/08/21 12:53:18;;;;;;;5.68;1.75;;;;;;;;;;6216465;23;20021;-92
2022/08/21 12:55:44;;;;;;;9.50;1.65;;;;;;;;;;6220275;23;20025;-92
2022/08/21 12:58:29;;;;;;;7.88;1.67;;;;;;;;;;6191761;23;20017;-94
2022/08/21 13:01:06;;;;;;;8.02;1.85;;;;;;;;;;6168977;23;20024;-93
2022/08/21 13:03:55;;;;;;;7.43;1.95;;;;;;;;;;6193707;23;20024;-85
2022/08/21 13:06:23;;;;;;;5.88;1.90;;;;;;;;;;6216962;23;20025;-88
2022/08/21 13:08:52;;;;;;;6.50;1.90;;;;;;;;;;6221921;23;20023;-89
2022/08/21 13:11:21;;;;;;;6.05;1.83;;;;;;;;;;6219747;23;20489;-86
2022/08/21 13:13:51;;;;;;;9.82;2.38;;;;;;;;;;6219131;23;20035;-88
2022/08/21 13:16:28;;;;;;;7.82;1.73;;;;;;;;;;6220197;23;20154;-90
2022/08/21 13:19:01;;;;;;;8.40;2.25;;;;;;;;;;6169505;23;20013;-92
2022/08/21 13:21:48;;;;;;;7.47;2.00;;;;;;;;;;6222405;23;20028;-93
2022/08/21 13:24:14;;;;;;;6.03;1.90;;;;;;;;;;6218852;23;20020;-90
2022/08/21 13:26:40;;;;;;;7.47;1.85;;;;;;;;;;6223410;23;20020;-88
2022/08/21 13:29:11;;;;;;;7.75;2.58;;;;;;;;;;6192694;23;20028;-89
2022/08/21 13:31:38;;;;;;;7.55;2.05;;;;;;;;;;6196824;23;20025;-87
2022/08/21 13:34:04;;;;;;;4.43;1.73;;;;;;;;;;6197888;23;20017;-87
2022/08/21 13:36:52;;;;;;;10.82;2.17;;;;;;;;;;6197163;23;20028;-91
2022/08/21 13:39:19;;;;;;;6.55;1.92;;;;;;;;;;6193648;23;20034;-89
2022/08/21 13:41:47;;;;;;;9.25;2.28;;;;;;;;;;6172121;23;20245;-89
2022/08/21 13:47:11;;;;;;;7.45;1.92;;;;;;;;;;6221525;23;20039;-90
2022/08/21 13:49:39;;;;;;;6.13;1.95;;;;;;;;;;6167940;23;20020;-89
2022/08/21 13:52:34;;;;;;;8.20;2.05;;;;;;;;;;6196107;22;20032;-96
2022/08/21 13:55:08;;;;;;;13.20;2.28;;;;;;;;;;6201845;23;20104;-93
2022/08/21 13:57:52;;;;;;;12.35;2.47;;;;;;;;;;6231891;23;20023;-92
2022/08/21 14:00:37;;;;;;;10.85;2.80;;;;;;;;;;6228176;23;20024;-91
2022/08/21 14:03:29;;;;;;;6.80;2.22;;;;;;;;;;6257894;23;20143;-93
2022/08/21 14:05:55;;;;;;;10.00;2.30;;;;;;;;;;6253658;23;20020;-91
2022/08/21 14:15:09;;;;;;;10.88;2.58;;;;;;;;;;6139634;23;20021;-89
2022/08/21 14:27:41;;;;;;;11.15;2.20;;;;;;;;;;6124145;23;20057;-89
2022/08/21 14:37:25;;;;;;;;;;;;;;;;;;;;;
2022/08/21 14:40:27;;;;;;;10.32;2.40;;;;;;;;;;6254990;23;20027;-94
2022/08/21 14:43:03;;;;;;;15.25;3.25;;;;;;;;;;6226788;23;20024;-90
2022/08/21 14:45:58;;;;;;;9.15;2.33;;;;;;;;;;6223499;23;20364;-89
2022/08/21 14:52:07;;;;;;;7.47;2.00;;;;;;;;;;6240826;23;20048;-89
2022/08/21 14:54:33;;;;;;;12.43;2.35;;;;;;;;;;6202084;23;20038;-94
2022/08/21 15:00:26;;;;;;;9.98;2.50;;;;;;;;;;6243539;22;20024;-92
2022/08/21 15:06:25;;;;;;;5.93;2.30;;;;;;;;;;6254351;23;20020;-92
2022/08/21 15:09:15;;;;;;;8.88;2.33;;;;;;;;;;6201819;23;20020;-88
2022/08/21 15:14:59;;;;;;;10.55;2.40;;;;;;;;;;6079425;23;20097;-92
2022/08/21 15:17:26;;;;;;;10.80;2.00;;;;;;;;;;6107334;23;20022;-91
2022/08/21 15:19:55;;;;;;;8.82;2.30;;;;;;;;;;6226878;23;20061;-91
2022/08/21 15:22:40;;;;;;;8.20;2.03;;;;;;;;;;6184234;23;20039;-91
2022/08/21 15:25:06;;;;;;;11.45;2.25;;;;;;;;;;6250225;23;20016;-92
2022/08/21 15:27:32;;;;;;;10.75;2.60;;;;;;;;;;6224689;23;20030;-92
2022/08/21 15:29:59;;;;;;;11.63;2.67;;;;;;;;;;6196496;23;20188;-92
2022/08/21 15:32:28;;;;;;;7.38;2.42;;;;;;;;;;6197353;23;20026;-91
2022/08/21 15:34:55;;;;;;;6.47;2.38;;;;;;;;;;6196597;22;20368;-90
2022/08/21 15:37:22;;;;;;;8.27;1.83;;;;;;;;;;6199803;23;20024;-92
2022/08/21 15:43:26;;;;;;;11.98;2.08;;;;;;;;;;6249457;22;20059;-91
2022/08/21 15:45:52;;;;;;;9.00;2.33;;;;;;;;;;6197307;23;20020;-94
2022/08/21 15:48:18;;;;;;;8.75;2.45;;;;;;;;;;6224495;23;20040;-91
2022/08/21 15:51:22;;;;;;;12.35;2.53;;;;;;;;;;6199378;23;20026;-91
2022/08/21 15:53:48;;;;;;;8.48;1.70;;;;;;;;;;6178073;23;20028;-92
2022/08/21 15:56:24;;;;;;;9.10;2.88;;;;;;;;;;6200258;23;20050;-89
2022/08/21 15:58:51;;;;;;;9.05;2.35;;;;;;;;;;6227810;23;20016;-91
2022/08/21 16:01:20;;;;;;;10.07;2.95;;;;;;;;;;6253262;23;20016;-88
2022/08/21 16:03:49;;;;;;;8.45;2.10;;;;;;;;;;6226442;23;20016;-93
2022/08/21 16:06:15;;;;;;;11.27;2.92;;;;;;;;;;6225224;23;20093;-91
2022/08/21 16:08:47;;;;;;;8.85;2.10;;;;;;;;;;6198138;23;20445;-90
2022/08/21 16:11:14;;;;;;;11.95;3.72;;;;;;;;;;6225837;23;20008;-91
2022/08/21 16:13:42;;;;;;;14.50;2.63;;;;;;;;;;6222037;23;20020;-92
2022/08/21 16:16:12;;;;;;;10.45;2.63;;;;;;;;;;6254427;23;20016;-92
2022/08/21 16:18:41;;;;;;;8.73;2.63;;;;;;;;;;6200257;23;20044;-92
2022/08/21 16:21:27;;;;;;;10.57;2.72;;;24.20;99.90;;;;;;6226545;23;20016;-93
2022/08/21 16:23:53;;;;;;;7.78;1.80;;;;;;;;;;6203229;23;20863;-90
2022/08/21 16:32:07;;;;;;;8.13;2.15;;;;;;;;;;6241645;22;20083;-91
2022/08/21 16:34:56;;;;;;;10.10;2.80;;;;;;;;;;6223716;23;20403;-92
2022/08/21 16:37:22;;;;;;;8.57;2.50;;;;;;;;;;6202173;23;20027;-90
2022/08/21 16:39:48;;;;;;;8.15;2.20;;;;;;;;;;6198358;23;20035;-91
2022/08/21 16:42:22;;;;;;;10.52;2.63;;;;;;;;;;6253831;23;20019;-93
2022/08/21 16:44:51;;;;;;;13.45;2.13;;;;;;;;;;6224517;23;20028;-91
2022/08/21 16:47:17;;;;;;;12.63;2.55;;;;;;;;;;6225117;23;20027;-92
2022/08/21 16:49:45;;;;;;;11.63;2.47;;;;;;;;;;6198267;23;20099;-91
2022/08/21 16:52:18;;;;;;;8.85;2.15;;;;;;;;;;6176226;23;20022;-91
2022/08/21 16:54:50;;;;;;;;;;;;;;;;;;6224278;23;20020;-92
2022/08/21 16:57:16;;;;;;;8.25;2.05;;;;;;;;;;6253882;23;19922;-91
2022/08/21 16:59:42;;;;;;;11.10;2.85;;;;;;;;;;6198910;23;20020;-91
2022/08/21 17:02:23;;;;;;;12.40;2.38;;;;;;;;;;6226563;23;20023;-93
2022/08/21 17:04:49;;;;;;;13.30;2.90;;;;;;;;;;6249700;23;20031;-89
2022/08/21 17:07:27;;;;;;;6.75;2.20;;;;;;;;;;6223572;23;20020;-91
2022/08/21 17:09:53;;;;;;;7.72;2.03;;;;;;;;;;6250286;23;20027;-90
2022/08/21 17:12:19;;;;;;;7.70;2.13;;;;;;;;;;6200642;23;20091;-87
2022/08/21 17:14:46;;;;;;;6.82;2.00;;;;;;;;;;6222685;23;20016;-90
2022/08/21 17:17:13;;;;;;;9.43;2.40;;;;;;;;;;6173047;23;20453;-86
2022/08/21 17:19:40;;;;;;;8.82;2.00;;;;;;;;;;6222163;23;20031;-87
2022/08/21 17:22:06;;;;;;;12.93;2.97;;;;;;;;;;6194762;23;20019;-86
2022/08/21 17:24:33;;;;;;;11.07;2.15;;;;;;;;;;6249395;23;20016;-85
2022/08/21 17:27:04;;;;;;;15.20;3.40;;;;;;;;;;6222151;23;20024;-88
2022/08/21 17:29:35;;;;;;;14.05;3.13;;;;;;;;;;6197619;23;20024;-89
2022/08/21 17:32:02;;;;;;;8.02;2.42;;;;;;;;;;6247406;23;20070;-88
2022/08/21 17:34:31;;;;;;;11.00;2.70;;;;;;;;;;6219578;23;20020;-87
2022/08/21 17:36:58;;;;;;;7.10;2.08;;;;;;;;;;6248401;23;20027;-88
2022/08/21 17:39:24;;;;;;;13.07;2.75;;;;;;;;;;6196316;23;20016;-89
2022/08/21 17:41:51;;;;;;;8.85;2.13;;;;;;;;;;6195106;23;20353;-86
2022/08/21 17:44:18;;;;;;;11.45;2.33;;;;;;;;;;6246505;23;20023;-86
2022/08/21 17:47:00;;;;;;;7.80;2.90;;;;;;;;;;6194945;23;20428;-88
2022/08/21 17:49:26;;;;;;;11.88;3.08;;;;;;;;;;6218384;23;20478;-87
2022/08/21 17:51:52;;;;;;;9.50;2.80;;;;;;;;;;6248953;23;20020;-87
2022/08/21 17:54:18;;;;;;;11.80;2.58;;;;;;;;;;6220789;23;20023;-88
2022/08/21 17:56:45;;;;;;;9.38;2.40;;;;;;;;;;6172359;23;20020;-88
2022/08/21 17:59:11;;;;;;;11.05;2.67;;;;;;;;;;6220716;23;20048;-86
2022/08/21 18:01:42;;;;;;;9.65;2.45;;;;;;;;;;6196944;23;20103;-85
2022/08/21 18:04:11;;;;;;;12.50;2.38;;;;;;;;;;6223008;23;20062;-88
2022/08/21 18:06:38;;;;;;;13.90;2.83;;;;;;;;;;6204223;23;20024;-89
2022/08/21 18:12:00;;;;;;;14.88;3.30;;;;;;;;;;6192382;23;20464;-86
2022/08/21 18:14:31;;;;;;;9.98;3.00;;;;;;;;;;6249461;23;20069;-86